ROA052 SVMI-SVMG
Flight info
| Callsign | ROA052 |
|---|---|
| Flight time | 0h 38m |
| Altitude | 23000 |
| Route | OSMAR2 OSMAR DCT DALSI W19 CHALO DCT VAREX |
| Aircraft | B737/M-SDE2E3FGHIRWXY/LB1 |
Departure
| Time | 2026-05-04 01:25 |
|---|---|
| Airport | Maiquetía Simón Bolívar International Airport (SVMI) |
Arrival
| Time | 2026-05-04 02:04 |
|---|---|
| Airport | Del Caribe Santiago Mariño International Airport (SVMG) |
| Time | Latitude | Longitude | Altitude | Speed | Heading |
|---|---|---|---|---|---|
| 2026-05-04 00:55 | 10.59832 | -67.00077 | 222 ft | 0 kts | 178° |
| 2026-05-04 01:11 | 10.59842 | -67.00077 | 222 ft | 3 kts | 178° |
| 2026-05-04 01:11 | 10.59862 | -67.00078 | 222 ft | 3 kts | 179° |
| 2026-05-04 01:11 | 10.59882 | -67.00078 | 221 ft | 3 kts | 176° |
| 2026-05-04 01:12 | 10.59896 | -67.00080 | 221 ft | 1 kts | 157° |
| 2026-05-04 01:12 | 10.59904 | -67.00085 | 221 ft | 1 kts | 121° |
| 2026-05-04 01:12 | 10.59907 | -67.00093 | 221 ft | 1 kts | 99° |
| 2026-05-04 01:12 | 10.59908 | -67.00101 | 223 ft | 1 kts | 92° |
| 2026-05-04 01:13 | 10.59908 | -67.00107 | 222 ft | 0 kts | 90° |
| 2026-05-04 01:18 | 10.59908 | -67.00106 | 222 ft | 1 kts | 90° |
| 2026-05-04 01:18 | 10.59908 | -67.00085 | 220 ft | 5 kts | 89° |
| 2026-05-04 01:18 | 10.59910 | -67.00038 | 220 ft | 8 kts | 88° |
| 2026-05-04 01:18 | 10.59913 | -66.99967 | 219 ft | 12 kts | 88° |
| 2026-05-04 01:19 | 10.59950 | -66.99914 | 218 ft | 10 kts | 9° |
| 2026-05-04 01:19 | 10.60019 | -66.99914 | 221 ft | 10 kts | 358° |
| 2026-05-04 01:19 | 10.60077 | -66.99915 | 222 ft | 8 kts | 358° |
| 2026-05-04 01:19 | 10.60125 | -66.99894 | 217 ft | 8 kts | 55° |
| 2026-05-04 01:20 | 10.60134 | -66.99840 | 215 ft | 8 kts | 86° |
| 2026-05-04 01:20 | 10.60137 | -66.99780 | 221 ft | 9 kts | 88° |
| 2026-05-04 01:20 | 10.60138 | -66.99712 | 216 ft | 10 kts | 95° |
| 2026-05-04 01:20 | 10.60092 | -66.99668 | 217 ft | 10 kts | 172° |
| 2026-05-04 01:21 | 10.60025 | -66.99664 | 219 ft | 9 kts | 178° |
| 2026-05-04 01:21 | 10.59979 | -66.99662 | 220 ft | 0 kts | 177° |
| 2026-05-04 01:23 | 10.59972 | -66.99662 | 217 ft | 3 kts | 178° |
| 2026-05-04 01:23 | 10.59936 | -66.99662 | 218 ft | 8 kts | 181° |
| 2026-05-04 01:24 | 10.59905 | -66.99621 | 215 ft | 6 kts | 82° |
| 2026-05-04 01:24 | 10.59908 | -66.99610 | 220 ft | 1 kts | 73° |
| 2026-05-04 01:24 | 10.59940 | -66.99487 | 206 ft | 48 kts | 76° |
| 2026-05-04 01:24 | 10.60087 | -66.98892 | 183 ft | 122 kts | 76° |
| 2026-05-04 01:25 | 10.60328 | -66.97911 | 473 ft | 149 kts | 77° |
| 2026-05-04 01:25 | 10.60557 | -66.96908 | 1208 ft | 153 kts | 78° |
| 2026-05-04 01:25 | 10.60849 | -66.95766 | 1679 ft | 174 kts | 74° |
| 2026-05-04 01:25 | 10.61238 | -66.94651 | 2626 ft | 161 kts | 72° |
| 2026-05-04 01:26 | 10.61605 | -66.93518 | 3030 ft | 186 kts | 74° |
| 2026-05-04 01:26 | 10.62022 | -66.92164 | 3260 ft | 213 kts | 74° |
| 2026-05-04 01:26 | 10.62484 | -66.90655 | 3572 ft | 231 kts | 73° |
| 2026-05-04 01:26 | 10.62970 | -66.89073 | 3972 ft | 241 kts | 73° |
| 2026-05-04 01:27 | 10.63495 | -66.87361 | 4000 ft | 262 kts | 73° |
| 2026-05-04 01:27 | 10.64044 | -66.85574 | 4032 ft | 267 kts | 73° |
| 2026-05-04 01:27 | 10.64595 | -66.83778 | 4034 ft | 265 kts | 73° |
| 2026-05-04 01:27 | 10.65142 | -66.81996 | 4029 ft | 264 kts | 73° |
| 2026-05-04 01:28 | 10.65690 | -66.80210 | 4028 ft | 264 kts | 73° |
| 2026-05-04 01:28 | 10.66236 | -66.78433 | 4037 ft | 263 kts | 73° |
| 2026-05-04 01:28 | 10.66771 | -66.76686 | 4041 ft | 262 kts | 74° |
| 2026-05-04 01:28 | 10.67313 | -66.74918 | 4037 ft | 262 kts | 74° |
| 2026-05-04 01:29 | 10.67855 | -66.73149 | 4039 ft | 262 kts | 73° |
| 2026-05-04 01:29 | 10.68394 | -66.71390 | 4033 ft | 259 kts | 73° |
| 2026-05-04 01:29 | 10.68928 | -66.69645 | 4038 ft | 258 kts | 73° |
| 2026-05-04 01:29 | 10.69458 | -66.67912 | 4028 ft | 256 kts | 74° |
| 2026-05-04 01:30 | 10.69984 | -66.66192 | 4142 ft | 254 kts | 73° |
| 2026-05-04 01:30 | 10.70518 | -66.64446 | 4647 ft | 263 kts | 73° |
| 2026-05-04 01:30 | 10.71057 | -66.62685 | 5569 ft | 263 kts | 73° |
| 2026-05-04 01:30 | 10.71599 | -66.60913 | 6344 ft | 269 kts | 73° |
| 2026-05-04 01:31 | 10.72162 | -66.59069 | 7081 ft | 276 kts | 73° |
| 2026-05-04 01:31 | 10.72733 | -66.57201 | 7988 ft | 277 kts | 73° |
| 2026-05-04 01:31 | 10.73301 | -66.55331 | 8930 ft | 279 kts | 74° |
| 2026-05-04 01:31 | 10.73842 | -66.53465 | 9831 ft | 283 kts | 74° |
| 2026-05-04 01:32 | 10.74408 | -66.51483 | 10637 ft | 291 kts | 74° |
| 2026-05-04 01:32 | 10.74995 | -66.49425 | 10974 ft | 314 kts | 74° |
| 2026-05-04 01:32 | 10.75614 | -66.47260 | 11663 ft | 322 kts | 74° |
| 2026-05-04 01:32 | 10.76234 | -66.45096 | 12522 ft | 324 kts | 74° |
| 2026-05-04 01:33 | 10.76865 | -66.42893 | 13422 ft | 326 kts | 74° |
| 2026-05-04 01:33 | 10.77503 | -66.40671 | 14210 ft | 329 kts | 75° |
| 2026-05-04 01:33 | 10.78148 | -66.38422 | 14962 ft | 333 kts | 75° |
| 2026-05-04 01:33 | 10.78801 | -66.36143 | 15707 ft | 337 kts | 75° |
| 2026-05-04 01:34 | 10.79460 | -66.33842 | 16457 ft | 341 kts | 75° |
| 2026-05-04 01:34 | 10.80117 | -66.31510 | 17209 ft | 345 kts | 75° |
| 2026-05-04 01:34 | 10.80776 | -66.29151 | 17960 ft | 349 kts | 75° |
| 2026-05-04 01:34 | 10.81441 | -66.26765 | 18617 ft | 353 kts | 75° |
| 2026-05-04 01:35 | 10.82110 | -66.24369 | 19143 ft | 360 kts | 75° |
| 2026-05-04 01:35 | 10.82800 | -66.21896 | 19713 ft | 366 kts | 74° |
| 2026-05-04 01:35 | 10.83498 | -66.19396 | 20320 ft | 370 kts | 74° |
| 2026-05-04 01:35 | 10.84202 | -66.16875 | 21014 ft | 371 kts | 73° |
| 2026-05-04 01:36 | 10.84913 | -66.14331 | 21597 ft | 377 kts | 73° |
| 2026-05-04 01:36 | 10.85635 | -66.11744 | 22174 ft | 382 kts | 73° |
| 2026-05-04 01:36 | 10.86364 | -66.09130 | 22763 ft | 386 kts | 73° |
| 2026-05-04 01:36 | 10.87101 | -66.06489 | 22968 ft | 387 kts | 72° |
| 2026-05-04 01:37 | 10.87823 | -66.03903 | 22982 ft | 384 kts | 72° |
| 2026-05-04 01:37 | 10.88554 | -66.01277 | 22996 ft | 387 kts | 72° |
| 2026-05-04 01:37 | 10.89291 | -65.98629 | 22994 ft | 390 kts | 73° |
| 2026-05-04 01:37 | 10.89807 | -65.95912 | 22986 ft | 393 kts | 83° |
| 2026-05-04 01:38 | 10.89903 | -65.93129 | 22998 ft | 395 kts | 89° |
| 2026-05-04 01:38 | 10.89886 | -65.90333 | 22987 ft | 395 kts | 90° |
| 2026-05-04 01:38 | 10.89844 | -65.87549 | 22977 ft | 392 kts | 90° |
| 2026-05-04 01:38 | 10.89802 | -65.84792 | 22975 ft | 388 kts | 90° |
| 2026-05-04 01:39 | 10.89768 | -65.82055 | 22984 ft | 388 kts | 90° |
| 2026-05-04 01:39 | 10.89744 | -65.79336 | 22995 ft | 391 kts | 89° |
| 2026-05-04 01:39 | 10.89725 | -65.76562 | 22991 ft | 393 kts | 89° |
| 2026-05-04 01:39 | 10.89710 | -65.73779 | 22990 ft | 394 kts | 89° |
| 2026-05-04 01:40 | 10.89698 | -65.70990 | 22989 ft | 394 kts | 89° |
| 2026-05-04 01:40 | 10.89685 | -65.68201 | 22988 ft | 395 kts | 89° |
| 2026-05-04 01:40 | 10.89673 | -65.65417 | 22977 ft | 393 kts | 89° |
| 2026-05-04 01:40 | 10.89660 | -65.62648 | 22973 ft | 389 kts | 89° |
| 2026-05-04 01:41 | 10.89648 | -65.59910 | 22977 ft | 386 kts | 89° |
| 2026-05-04 01:41 | 10.89635 | -65.57181 | 22991 ft | 387 kts | 89° |
| 2026-05-04 01:41 | 10.89622 | -65.54477 | 22993 ft | 387 kts | 89° |
| 2026-05-04 01:41 | 10.89609 | -65.51737 | 22987 ft | 388 kts | 89° |
| 2026-05-04 01:42 | 10.89595 | -65.48993 | 22983 ft | 388 kts | 89° |
| 2026-05-04 01:42 | 10.89581 | -65.46247 | 22985 ft | 389 kts | 89° |
| 2026-05-04 01:42 | 10.89567 | -65.43496 | 22982 ft | 389 kts | 89° |
| 2026-05-04 01:42 | 10.89552 | -65.40745 | 22982 ft | 389 kts | 89° |
| 2026-05-04 01:43 | 10.89538 | -65.37997 | 22984 ft | 389 kts | 89° |
| 2026-05-04 01:43 | 10.89523 | -65.35249 | 22982 ft | 388 kts | 89° |
| 2026-05-04 01:43 | 10.89507 | -65.32541 | 22980 ft | 387 kts | 89° |
| 2026-05-04 01:43 | 10.89502 | -65.29805 | 22981 ft | 386 kts | 89° |
| 2026-05-04 01:44 | 10.89534 | -65.27086 | 22972 ft | 383 kts | 88° |
| 2026-05-04 01:44 | 10.89581 | -65.24388 | 22971 ft | 381 kts | 88° |
| 2026-05-04 01:44 | 10.89633 | -65.21679 | 22656 ft | 384 kts | 88° |
| 2026-05-04 01:44 | 10.89683 | -65.18970 | 22259 ft | 384 kts | 88° |
| 2026-05-04 01:45 | 10.89730 | -65.16273 | 21831 ft | 379 kts | 88° |
| 2026-05-04 01:45 | 10.89774 | -65.13609 | 21349 ft | 375 kts | 88° |
| 2026-05-04 01:45 | 10.89856 | -65.08406 | 20429 ft | 365 kts | 88° |
| 2026-05-04 01:46 | 10.89894 | -65.05872 | 19963 ft | 352 kts | 89° |
| 2026-05-04 01:46 | 10.89931 | -65.03428 | 19525 ft | 339 kts | 89° |
| 2026-05-04 01:46 | 10.89966 | -65.01072 | 19099 ft | 328 kts | 89° |
| 2026-05-04 01:46 | 10.90001 | -64.98786 | 18688 ft | 318 kts | 89° |
| 2026-05-04 01:47 | 10.90034 | -64.96574 | 18283 ft | 308 kts | 89° |
| 2026-05-04 01:47 | 10.90066 | -64.94424 | 17834 ft | 301 kts | 89° |
| 2026-05-04 01:47 | 10.90097 | -64.92305 | 17432 ft | 298 kts | 89° |
| 2026-05-04 01:47 | 10.90128 | -64.90198 | 17035 ft | 298 kts | 89° |
| 2026-05-04 01:48 | 10.90159 | -64.88068 | 16637 ft | 306 kts | 89° |
| 2026-05-04 01:48 | 10.90191 | -64.85866 | 16218 ft | 314 kts | 89° |
| 2026-05-04 01:48 | 10.90223 | -64.83691 | 15779 ft | 307 kts | 89° |
| 2026-05-04 01:48 | 10.90254 | -64.81543 | 15377 ft | 303 kts | 89° |
| 2026-05-04 01:49 | 10.90285 | -64.79404 | 14967 ft | 301 kts | 89° |
| 2026-05-04 01:49 | 10.90315 | -64.77282 | 14563 ft | 299 kts | 89° |
| 2026-05-04 01:49 | 10.90345 | -64.75170 | 14158 ft | 298 kts | 89° |
| 2026-05-04 01:49 | 10.90375 | -64.73065 | 13746 ft | 297 kts | 89° |
| 2026-05-04 01:50 | 10.90404 | -64.70973 | 13283 ft | 296 kts | 89° |
| 2026-05-04 01:50 | 10.90434 | -64.68886 | 12856 ft | 294 kts | 89° |
| 2026-05-04 01:50 | 10.90462 | -64.66841 | 12447 ft | 292 kts | 89° |
| 2026-05-04 01:50 | 10.90491 | -64.64786 | 12046 ft | 290 kts | 89° |
| 2026-05-04 01:51 | 10.90521 | -64.62744 | 11748 ft | 287 kts | 89° |
| 2026-05-04 01:51 | 10.90553 | -64.60713 | 11516 ft | 288 kts | 89° |
| 2026-05-04 01:51 | 10.90586 | -64.58678 | 11169 ft | 286 kts | 89° |
| 2026-05-04 01:51 | 10.90618 | -64.56659 | 10778 ft | 285 kts | 89° |
| 2026-05-04 01:52 | 10.90650 | -64.54653 | 10372 ft | 284 kts | 89° |
| 2026-05-04 01:52 | 10.90682 | -64.52674 | 10189 ft | 274 kts | 89° |
| 2026-05-04 01:52 | 10.90712 | -64.50769 | 10044 ft | 264 kts | 89° |
| 2026-05-04 01:52 | 10.90741 | -64.48915 | 9716 ft | 262 kts | 89° |
| 2026-05-04 01:53 | 10.90769 | -64.47095 | 9372 ft | 260 kts | 89° |
| 2026-05-04 01:53 | 10.90798 | -64.45261 | 9015 ft | 259 kts | 89° |
| 2026-05-04 01:53 | 10.90826 | -64.43435 | 8667 ft | 258 kts | 89° |
| 2026-05-04 01:53 | 10.90854 | -64.41616 | 8320 ft | 257 kts | 90° |
| 2026-05-04 01:54 | 10.90882 | -64.39803 | 7974 ft | 256 kts | 90° |
| 2026-05-04 01:54 | 10.90908 | -64.37996 | 7609 ft | 257 kts | 90° |
| 2026-05-04 01:54 | 10.90926 | -64.36168 | 7226 ft | 259 kts | 90° |
| 2026-05-04 01:54 | 10.90943 | -64.34360 | 6869 ft | 259 kts | 90° |
| 2026-05-04 01:55 | 10.90960 | -64.32526 | 6516 ft | 260 kts | 90° |
| 2026-05-04 01:55 | 10.90977 | -64.30687 | 6143 ft | 260 kts | 90° |
| 2026-05-04 01:55 | 10.90994 | -64.28850 | 5805 ft | 258 kts | 90° |
| 2026-05-04 01:55 | 10.91011 | -64.27097 | 5713 ft | 237 kts | 90° |
| 2026-05-04 01:56 | 10.91026 | -64.25482 | 5536 ft | 219 kts | 89° |
| 2026-05-04 01:56 | 10.91039 | -64.24024 | 5391 ft | 202 kts | 90° |
| 2026-05-04 01:56 | 10.91052 | -64.22649 | 5236 ft | 186 kts | 90° |
| 2026-05-04 01:56 | 10.91064 | -64.21396 | 5123 ft | 169 kts | 90° |
| 2026-05-04 01:57 | 10.91073 | -64.20213 | 4865 ft | 165 kts | 90° |
| 2026-05-04 01:57 | 10.90793 | -64.19110 | 4611 ft | 162 kts | 116° |
| 2026-05-04 01:57 | 10.90136 | -64.18227 | 4381 ft | 156 kts | 134° |
| 2026-05-04 01:57 | 10.89285 | -64.17584 | 4258 ft | 157 kts | 156° |
| 2026-05-04 01:58 | 10.88236 | -64.17175 | 4211 ft | 165 kts | 140° |
| 2026-05-04 01:58 | 10.87748 | -64.16217 | 4112 ft | 154 kts | 93° |
| 2026-05-04 01:58 | 10.87827 | -64.15096 | 3730 ft | 159 kts | 86° |
| 2026-05-04 01:58 | 10.87912 | -64.13977 | 3352 ft | 155 kts | 86° |
| 2026-05-04 01:59 | 10.88031 | -64.12923 | 3096 ft | 144 kts | 84° |
| 2026-05-04 01:59 | 10.88189 | -64.11964 | 2914 ft | 130 kts | 81° |
| 2026-05-04 01:59 | 10.88350 | -64.11107 | 2726 ft | 120 kts | 80° |
| 2026-05-04 01:59 | 10.88514 | -64.10268 | 2573 ft | 122 kts | 80° |
| 2026-05-04 02:00 | 10.88684 | -64.09413 | 2403 ft | 123 kts | 80° |
| 2026-05-04 02:00 | 10.88855 | -64.08565 | 2224 ft | 121 kts | 81° |
| 2026-05-04 02:00 | 10.89023 | -64.07732 | 2044 ft | 119 kts | 79° |
| 2026-05-04 02:00 | 10.89191 | -64.06901 | 1902 ft | 120 kts | 79° |
| 2026-05-04 02:01 | 10.89356 | -64.06084 | 1734 ft | 116 kts | 82° |
| 2026-05-04 02:01 | 10.89518 | -64.05277 | 1567 ft | 119 kts | 79° |
| 2026-05-04 02:01 | 10.89685 | -64.04450 | 1409 ft | 119 kts | 79° |
| 2026-05-04 02:01 | 10.89850 | -64.03633 | 1221 ft | 119 kts | 78° |
| 2026-05-04 02:02 | 10.90017 | -64.02803 | 1082 ft | 124 kts | 78° |
| 2026-05-04 02:02 | 10.90191 | -64.01940 | 914 ft | 123 kts | 76° |
| 2026-05-04 02:02 | 10.90358 | -64.01119 | 739 ft | 118 kts | 77° |
| 2026-05-04 02:02 | 10.90532 | -64.00263 | 575 ft | 126 kts | 76° |
| 2026-05-04 02:03 | 10.90703 | -63.99412 | 416 ft | 121 kts | 79° |
| 2026-05-04 02:03 | 10.90874 | -63.98564 | 207 ft | 121 kts | 78° |
| 2026-05-04 02:03 | 10.91045 | -63.97749 | 82 ft | 113 kts | 78° |
| 2026-05-04 02:03 | 10.91141 | -63.97260 | 58 ft | 86 kts | 78° |
| 2026-05-04 02:04 | 10.91220 | -63.96876 | 59 ft | 25 kts | 78° |
| 2026-05-04 02:04 | 10.91250 | -63.96724 | 60 ft | 22 kts | 79° |
| 2026-05-04 02:04 | 10.91279 | -63.96579 | 53 ft | 21 kts | 77° |
| 2026-05-04 02:04 | 10.91306 | -63.96458 | 54 ft | 1 kts | 55° |
| 2026-05-04 02:05 | 10.91317 | -63.96459 | 50 ft | 2 kts | 357° |
| 2026-05-04 02:05 | 10.91330 | -63.96460 | 54 ft | 2 kts | 354° |
| 2026-05-04 02:05 | 10.91344 | -63.96461 | 53 ft | 2 kts | 353° |
| 2026-05-04 02:05 | 10.91357 | -63.96463 | 56 ft | 2 kts | 353° |
| 2026-05-04 02:06 | 10.91369 | -63.96465 | 54 ft | 2 kts | 347° |
| 2026-05-04 02:06 | 10.91381 | -63.96468 | 56 ft | 2 kts | 347° |
| 2026-05-04 02:06 | 10.91391 | -63.96470 | 56 ft | 2 kts | 347° |
| 2026-05-04 02:06 | 10.91401 | -63.96473 | 57 ft | 1 kts | 348° |
| 2026-05-04 02:07 | 10.91411 | -63.96475 | 57 ft | 1 kts | 348° |
| 2026-05-04 02:07 | 10.91431 | -63.96479 | 58 ft | 6 kts | 348° |
| 2026-05-04 02:07 | 10.91461 | -63.96508 | 56 ft | 6 kts | 286° |
| 2026-05-04 02:07 | 10.91457 | -63.96555 | 54 ft | 8 kts | 257° |
| 2026-05-04 02:08 | 10.91445 | -63.96613 | 54 ft | 9 kts | 258° |
| 2026-05-04 02:08 | 10.91433 | -63.96675 | 50 ft | 9 kts | 258° |
| 2026-05-04 02:08 | 10.91420 | -63.96737 | 48 ft | 9 kts | 257° |
| 2026-05-04 02:08 | 10.91407 | -63.96796 | 51 ft | 8 kts | 258° |
| 2026-05-04 02:09 | 10.91395 | -63.96853 | 55 ft | 8 kts | 258° |
| 2026-05-04 02:09 | 10.91383 | -63.96909 | 55 ft | 8 kts | 259° |
| 2026-05-04 02:09 | 10.91374 | -63.96963 | 54 ft | 8 kts | 261° |
| 2026-05-04 02:09 | 10.91399 | -63.97006 | 53 ft | 8 kts | 333° |
| 2026-05-04 02:10 | 10.91451 | -63.97008 | 53 ft | 8 kts | 18° |
| 2026-05-04 02:10 | 10.91485 | -63.96971 | 53 ft | 7 kts | 67° |
| 2026-05-04 02:10 | 10.91498 | -63.96922 | 50 ft | 7 kts | 76° |
| 2026-05-04 02:10 | 10.91509 | -63.96874 | 51 ft | 7 kts | 78° |
| 2026-05-04 02:11 | 10.91519 | -63.96827 | 53 ft | 7 kts | 78° |
| 2026-05-04 02:11 | 10.91541 | -63.96789 | 52 ft | 7 kts | 18° |
| 2026-05-04 02:11 | 10.91565 | -63.96791 | 52 ft | 0 kts | 350° |
| 2026-05-04 02:11 | 10.91568 | -63.96791 | 51 ft | 2 kts | 350° |
| 2026-05-04 02:12 | 10.91598 | -63.96797 | 51 ft | 6 kts | 348° |
| 2026-05-04 02:12 | 10.91604 | -63.96799 | 51 ft | 0 kts | 348° |